Elbe, Washington
Current Conditions -  °F | °C
As of 7:58 PM on Wednesday 17 Dec 2014 (Local Time) from KGRF Reporting Station
Drizzle Drizzle  
Wind Chill:   Ceiling: 2800
Heat Index:   Visibility: 9mi
Dew Point:   Wind: 0mph
Humidity: 99%   Direction: NA
Pressure: 29.9"   Gusts: NA
Location:  46.76°N, 122.2°W
Report Text: KGRF 180358Z AUTO 00000KT 9SM R15/5500FT +DZ OVC028 07/07 A2990 RMK AO2 SLP131 P0001 T00660065 $
Loading
Personal Weather Stations






























Interactive Weather Map New forecast layout! Learn more

10-Day Weather Forecast

Advertisements
Track Severe Weather on mobile